Time;durP1;ratioP1;P1;durP2;ratioP2;P2;SDS_P1;SDS_P2;PMS_P1;PMS_P2;Temp;Humidity;BMP_temperature;BMP_pressure;BME280_temperature;BME280_humidity;BME280_pressure;Samples;Min_cycle;Max_cycle;Signal;HPM_P1;HPM_P2
2022/09/17 00:00:45;;;;;;;2.83;0.80;;;9.90;99.90;;;;;;5035514;28;20056;-76
2022/09/17 00:03:12;;;;;;;0.98;0.47;;;9.90;99.90;;;;;;5052051;28;20096;-76
2022/09/17 00:05:38;;;;;;;3.40;0.60;;;10.00;99.90;;;;;;5052466;28;20024;-75
2022/09/17 00:08:06;;;;;;;1.08;0.30;;;10.00;99.90;;;;;;5051601;28;20036;-75
2022/09/17 00:10:37;;;;;;;1.55;0.65;;;9.90;99.90;;;;;;5050909;28;20045;-75
2022/09/17 00:13:04;;;;;;;1.85;0.77;;;9.90;99.90;;;;;;5050716;28;20045;-76
2022/09/17 00:15:30;;;;;;;2.22;0.50;;;9.90;99.90;;;;;;5052627;28;20048;-76
2022/09/17 00:17:57;;;;;;;0.93;0.40;;;9.90;99.90;;;;;;5052408;28;20040;-79
2022/09/17 00:20:25;;;;;;;3.08;0.50;;;9.90;99.90;;;;;;5050448;28;20025;-76
2022/09/17 00:22:51;;;;;;;0.70;0.40;;;9.80;99.90;;;;;;5052145;28;20044;-76
2022/09/17 00:25:18;;;;;;;4.13;0.50;;;9.70;99.90;;;;;;5051064;28;20040;-75
2022/09/17 00:27:45;;;;;;;2.00;0.55;;;9.80;99.90;;;;;;5051902;28;20413;-76
2022/09/17 00:30:12;;;;;;;5.30;0.60;;;9.80;99.90;;;;;;5049759;28;20458;-76
2022/09/17 00:32:38;;;;;;;1.17;0.40;;;9.80;99.90;;;;;;5051546;28;20436;-76
2022/09/17 00:35:05;;;;;;;1.70;0.50;;;9.80;99.90;;;;;;5050629;28;20032;-76
2022/09/17 00:37:31;;;;;;;1.75;0.50;;;9.70;99.90;;;;;;5051682;28;20044;-76
2022/09/17 00:39:57;;;;;;;0.75;0.50;;;9.80;99.90;;;;;;5015560;28;20048;-78
2022/09/17 00:42:23;;;;;;;1.98;0.50;;;9.80;99.90;;;;;;5051606;28;20390;-76
2022/09/17 00:44:53;;;;;;;2.13;0.52;;;9.80;99.90;;;;;;5051850;28;20044;-76
2022/09/17 00:47:31;;;;;;;1.35;0.80;;;9.70;99.90;;;;;;5050765;28;20025;-76
2022/09/17 00:50:04;;;;;;;2.35;0.68;;;9.70;99.90;;;;;;5033126;28;20032;-76
2022/09/17 00:52:38;;;;;;;1.63;0.50;;;9.60;99.90;;;;;;5052598;28;20034;-76
2022/09/17 00:55:20;;;;;;;2.92;0.65;;;9.60;99.90;;;;;;5051565;28;20048;-76
2022/09/17 00:57:49;;;;;;;2.10;0.60;;;9.60;99.90;;;;;;5034468;28;20063;-76
2022/09/17 01:00:17;;;;;;;1.60;0.47;;;9.60;99.90;;;;;;5053820;28;20048;-76
2022/09/17 01:02:43;;;;;;;2.90;0.70;;;9.50;99.90;;;;;;5055653;28;20390;-76
2022/09/17 01:05:11;;;;;;;3.63;0.68;;;9.50;99.90;;;;;;5055211;28;20029;-77
2022/09/17 01:08:00;;;;;;;4.80;0.90;;;9.40;99.90;;;;;;5055620;28;20029;-76
2022/09/17 01:11:01;;;;;;;2.10;0.95;;;9.40;99.90;;;;;;5057055;28;20025;-76
2022/09/17 01:13:30;;;;;;;2.83;0.80;;;9.30;99.90;;;;;;5038440;28;20036;-76
2022/09/17 01:16:20;;;;;;;2.10;0.80;;;9.20;99.90;;;;;;5038003;28;20044;-76
2022/09/17 01:18:46;;;;;;;4.13;1.00;;;9.40;99.90;;;;;;5055582;28;20036;-76
2022/09/17 01:21:46;;;;;;;2.22;0.75;;;9.40;99.90;;;;;;5054565;28;20040;-77
2022/09/17 01:24:46;;;;;;;8.30;1.10;;;9.50;99.90;;;;;;5052806;28;20037;-76
2022/09/17 01:27:33;;;;;;;6.88;1.08;;;9.40;99.90;;;;;;5056753;28;20033;-76
2022/09/17 01:30:12;;;;;;;3.85;0.95;;;9.30;99.90;;;;;;5063705;28;20509;-78
2022/09/17 01:32:41;;;;;;;2.13;0.70;;;9.40;99.90;;;;;;5059762;28;20036;-76
2022/09/17 01:35:34;;;;;;;5.32;0.82;;;9.40;99.90;;;;;;5051899;28;20033;-76
2022/09/17 01:38:13;;;;;;;3.75;1.05;;;9.40;99.90;;;;;;5051689;28;20033;-79
2022/09/17 01:41:09;;;;;;;4.00;0.98;;;9.40;99.90;;;;;;5054078;28;20040;-76
2022/09/17 01:43:48;;;;;;;4.60;1.20;;;9.40;99.90;;;;;;5017763;28;20044;-76
2022/09/17 01:46:37;;;;;;;2.90;1.00;;;9.40;99.90;;;;;;5054017;28;20382;-76
2022/09/17 01:49:06;;;;;;;1.95;0.70;;;9.40;99.90;;;;;;5035499;28;20048;-79
2022/09/17 01:51:39;;;;;;;7.75;1.40;;;9.50;99.90;;;;;;5036090;28;20025;-76
2022/09/17 01:54:26;;;;;;;3.88;0.98;;;9.50;99.90;;;;;;5054039;28;20037;-76
2022/09/17 01:57:03;;;;;;;2.05;0.82;;;9.50;99.90;;;;;;5054616;28;20025;-76
2022/09/17 01:59:41;;;;;;;4.47;1.33;;;9.50;99.90;;;;;;5045014;28;20061;-75
2022/09/17 02:02:20;;;;;;;5.57;1.70;;;9.40;99.90;;;;;;5033631;28;20038;-76
2022/09/17 02:04:57;;;;;;;3.50;0.80;;;9.40;99.90;;;;;;5034456;28;20044;-76
2022/09/17 02:07:24;;;;;;;4.45;1.55;;;9.30;99.90;;;;;;5033558;28;20606;-76
2022/09/17 02:10:11;;;;;;;7.30;1.33;;;9.30;99.90;;;;;;5031572;28;20029;-77
2022/09/17 02:12:42;;;;;;;2.85;0.85;;;9.30;99.90;;;;;;5034349;28;20387;-76
2022/09/17 02:15:16;;;;;;;4.35;0.80;;;9.30;99.90;;;;;;5033690;28;20044;-77
2022/09/17 02:17:48;;;;;;;2.70;0.63;;;9.30;99.90;;;;;;5034201;28;20029;-76
2022/09/17 02:20:17;;;;;;;2.88;1.00;;;9.20;99.90;;;;;;5031904;28;20034;-75
2022/09/17 02:22:56;;;;;;;2.30;0.80;;;9.20;99.90;;;;;;5034786;28;20033;-76
2022/09/17 02:25:42;;;;;;;3.47;0.90;;;9.30;99.90;;;;;;5033216;28;20025;-76
2022/09/17 02:28:22;;;;;;;2.22;0.93;;;9.20;99.90;;;;;;5033186;28;20029;-76
2022/09/17 02:30:49;;;;;;;3.13;1.10;;;9.20;99.90;;;;;;5026290;28;20046;-76
2022/09/17 02:33:16;;;;;;;2.53;0.85;;;9.20;99.90;;;;;;5032993;28;20037;-76
2022/09/17 02:35:45;;;;;;;4.38;1.27;;;9.20;99.90;;;;;;5033794;28;20025;-75
2022/09/17 02:38:12;;;;;;;6.32;1.05;;;9.20;99.90;;;;;;5032759;28;20478;-75
2022/09/17 02:40:53;;;;;;;3.08;0.90;;;9.20;99.90;;;;;;5030966;28;20042;-76
2022/09/17 02:43:41;;;;;;;1.85;0.70;;;9.20;99.90;;;;;;5032839;28;20032;-76
2022/09/17 02:46:26;;;;;;;2.38;0.85;;;9.30;99.90;;;;;;5032805;28;20406;-76
2022/09/17 02:49:34;;;;;;;2.42;0.73;;;9.30;99.90;;;;;;5027489;28;20025;-76
2022/09/17 02:52:27;;;;;;;2.83;1.08;;;9.20;99.90;;;;;;5022662;28;20053;-75
2022/09/17 02:55:07;;;;;;;2.60;0.82;;;9.20;99.90;;;;;;5032578;28;20041;-76
2022/09/17 02:57:43;;;;;;;3.83;1.10;;;9.30;99.90;;;;;;5033544;28;20037;-76
2022/09/17 03:00:16;;;;;;;3.50;0.90;;;9.20;99.90;;;;;;5030818;28;20052;-76
2022/09/17 03:03:03;;;;;;;2.63;0.80;;;9.20;99.90;;;;;;5032984;28;20383;-76
2022/09/17 03:05:30;;;;;;;4.35;1.33;;;9.20;99.90;;;;;;5032757;28;20033;-76
2022/09/17 03:07:58;;;;;;;3.70;1.05;;;9.30;99.90;;;;;;5033373;28;20029;-76
2022/09/17 03:10:32;;;;;;;3.90;1.58;;;9.40;99.90;;;;;;5031014;28;20029;-76
2022/09/17 03:12:58;;;;;;;4.63;1.45;;;9.50;99.90;;;;;;5032966;28;20041;-76
2022/09/17 03:15:24;;;;;;;5.28;1.25;;;9.50;99.90;;;;;;5032572;28;20593;-75
2022/09/17 03:17:50;;;;;;;3.33;1.00;;;9.60;99.90;;;;;;5032859;28;20034;-76
2022/09/17 03:20:17;;;;;;;2.78;1.00;;;9.60;99.90;;;;;;5030609;28;20398;-75
2022/09/17 03:22:43;;;;;;;3.08;1.25;;;9.60;99.90;;;;;;5032320;28;20037;-76
2022/09/17 03:25:10;;;;;;;4.13;1.30;;;9.70;99.90;;;;;;5031847;28;20025;-76
2022/09/17 03:27:36;;;;;;;3.88;1.13;;;9.70;99.90;;;;;;5032068;28;20064;-76
2022/09/17 03:30:03;;;;;;;3.20;1.75;;;9.70;99.90;;;;;;5030812;28;20033;-78
2022/09/17 03:32:29;;;;;;;4.68;0.95;;;9.60;99.90;;;;;;5032136;28;20033;-75
2022/09/17 03:34:56;;;;;;;8.00;1.00;;;9.60;99.90;;;;;;5031617;28;20037;-76
2022/09/17 03:37:22;;;;;;;3.75;0.82;;;9.60;99.90;;;;;;5031663;28;20056;-76
2022/09/17 03:39:48;;;;;;;3.20;1.25;;;9.60;99.90;;;;;;5031296;28;20086;-76
2022/09/17 03:42:14;;;;;;;5.63;1.77;;;9.60;99.90;;;;;;5031593;28;20034;-76
2022/09/17 03:44:40;;;;;;;5.25;0.80;;;9.70;99.90;;;;;;5032316;28;20040;-76
2022/09/17 03:47:07;;;;;;;7.95;1.25;;;9.70;99.90;;;;;;5031784;28;20060;-77
2022/09/17 03:49:33;;;;;;;4.38;1.20;;;9.80;99.90;;;;;;5031343;28;20034;-75
2022/09/17 03:51:59;;;;;;;3.30;0.80;;;9.80;99.90;;;;;;5032303;28;20045;-75
2022/09/17 03:54:25;;;;;;;3.58;0.85;;;9.80;99.90;;;;;;5030741;28;20054;-76
2022/09/17 03:56:51;;;;;;;3.63;1.20;;;9.80;99.90;;;;;;5032429;28;20513;-76
2022/09/17 03:59:17;;;;;;;3.30;0.93;;;9.80;99.90;;;;;;5029934;28;20075;-76
2022/09/17 04:01:44;;;;;;;4.72;1.10;;;9.80;99.90;;;;;;5032220;28;20033;-75
2022/09/17 04:04:10;;;;;;;3.17;1.05;;;9.90;99.90;;;;;;5030764;28;20378;-76
2022/09/17 04:06:36;;;;;;;3.67;0.93;;;9.90;99.90;;;;;;5032010;28;20029;-75
2022/09/17 04:09:04;;;;;;;2.53;1.27;;;9.90;99.90;;;;;;5029727;28;20037;-76
2022/09/17 04:11:30;;;;;;;2.60;0.77;;;9.90;99.90;;;;;;5031090;28;20037;-74
2022/09/17 04:13:56;;;;;;;3.67;1.02;;;9.90;99.90;;;;;;5031805;28;20037;-75
2022/09/17 04:16:22;;;;;;;3.38;0.75;;;9.90;99.90;;;;;;5031131;28;20029;-75
2022/09/17 04:18:48;;;;;;;3.22;1.30;;;9.90;99.90;;;;;;5027246;28;20038;-76
2022/09/17 04:21:14;;;;;;;6.32;1.77;;;9.90;99.90;;;;;;5030694;28;20032;-76
2022/09/17 04:23:41;;;;;;;2.33;0.80;;;9.90;99.90;;;;;;5026160;28;20386;-76
2022/09/17 04:26:07;;;;;;;3.92;1.10;;;9.90;99.90;;;;;;5030999;28;20462;-78
2022/09/17 04:28:33;;;;;;;1.40;0.60;;;9.90;99.90;;;;;;5031405;28;20037;-75
2022/09/17 04:30:59;;;;;;;4.55;0.93;;;9.90;99.90;;;;;;5030444;28;20026;-76
2022/09/17 04:33:25;;;;;;;4.25;0.60;;;9.90;99.90;;;;;;5030190;28;20045;-75
2022/09/17 04:35:52;;;;;;;2.55;1.27;;;9.90;99.90;;;;;;5031586;28;20038;-75
2022/09/17 04:38:19;;;;;;;4.18;1.08;;;9.90;99.90;;;;;;5030741;28;20036;-76
2022/09/17 04:40:46;;;;;;;2.75;0.60;;;9.90;99.90;;;;;;5031022;28;20379;-76
2022/09/17 04:43:13;;;;;;;2.75;0.82;;;9.90;99.90;;;;;;5030697;28;20041;-76
2022/09/17 04:45:39;;;;;;;7.82;1.17;;;10.00;99.90;;;;;;5030383;28;20048;-75
2022/09/17 04:48:05;;;;;;;4.03;0.68;;;9.90;99.90;;;;;;5031409;28;20032;-79
2022/09/17 04:50:32;;;;;;;2.05;0.75;;;9.90;99.90;;;;;;5029939;28;20029;-76
2022/09/17 04:52:58;;;;;;;2.88;0.80;;;9.90;99.90;;;;;;5031175;28;20060;-76
2022/09/17 04:55:26;;;;;;;3.03;1.13;;;9.90;99.90;;;;;;5030616;28;20026;-76
2022/09/17 04:57:53;;;;;;;1.58;0.90;;;9.90;99.90;;;;;;5031525;28;20382;-76
2022/09/17 05:00:20;;;;;;;2.20;0.60;;;9.90;99.90;;;;;;5043887;28;20463;-76
2022/09/17 05:02:49;;;;;;;6.18;0.80;;;9.90;99.90;;;;;;5051103;28;20036;-76
2022/09/17 05:05:16;;;;;;;3.30;1.45;;;10.00;99.90;;;;;;5049790;28;20033;-74
2022/09/17 05:07:42;;;;;;;4.57;0.82;;;9.90;99.90;;;;;;5051028;28;20363;-75
2022/09/17 05:10:10;;;;;;;6.10;0.90;;;10.00;99.90;;;;;;5031548;28;20029;-76
2022/09/17 05:12:36;;;;;;;3.60;1.10;;;10.00;99.90;;;;;;5051218;28;20064;-75
2022/09/17 05:15:04;;;;;;;4.60;0.90;;;10.00;99.90;;;;;;5050584;28;20037;-75
2022/09/17 05:17:30;;;;;;;1.73;0.70;;;10.00;99.90;;;;;;5050602;28;20037;-74
2022/09/17 05:19:56;;;;;;;2.60;0.70;;;10.00;99.90;;;;;;5032413;28;20485;-75
2022/09/17 05:22:23;;;;;;;3.97;0.90;;;10.00;99.90;;;;;;5050460;28;20470;-76
2022/09/17 05:24:49;;;;;;;3.38;1.13;;;10.00;99.90;;;;;;5050983;28;20040;-75
2022/09/17 05:27:15;;;;;;;1.38;0.60;;;10.10;99.90;;;;;;5050122;28;20041;-76
2022/09/17 05:29:41;;;;;;;3.70;0.95;;;10.00;99.90;;;;;;5050143;28;20052;-76
2022/09/17 05:32:07;;;;;;;5.38;1.42;;;10.00;99.90;;;;;;5050688;28;20037;-76
2022/09/17 05:34:33;;;;;;;3.55;0.90;;;10.00;99.90;;;;;;5050321;28;20040;-75
2022/09/17 05:36:59;;;;;;;2.20;0.73;;;10.00;99.90;;;;;;5051298;28;20029;-76
2022/09/17 05:39:25;;;;;;;2.78;0.60;;;10.00;99.90;;;;;;5049505;28;20036;-75
2022/09/17 05:41:52;;;;;;;2.17;1.13;;;10.00;99.90;;;;;;5051398;28;20025;-75
2022/09/17 05:44:19;;;;;;;4.30;0.90;;;10.00;99.90;;;;;;5051538;28;20029;-74
2022/09/17 05:46:46;;;;;;;5.82;1.23;;;10.10;99.90;;;;;;5054813;28;20455;-75
2022/09/17 05:49:14;;;;;;;2.50;1.10;;;10.00;99.90;;;;;;5052970;28;20439;-76
2022/09/17 05:51:41;;;;;;;5.00;0.93;;;10.10;99.90;;;;;;5054901;28;20382;-75
2022/09/17 05:54:08;;;;;;;2.03;0.85;;;10.10;99.90;;;;;;5055021;28;20045;-75
2022/09/17 05:56:34;;;;;;;1.83;0.73;;;10.20;99.90;;;;;;5057474;28;20041;-75
2022/09/17 05:59:00;;;;;;;3.70;0.73;;;10.20;99.90;;;;;;5035628;28;20371;-76
2022/09/17 06:01:27;;;;;;;5.07;1.02;;;10.20;99.90;;;;;;5054101;28;20029;-74
2022/09/17 06:03:53;;;;;;;4.30;1.50;;;10.20;99.90;;;;;;5054462;28;20037;-74
2022/09/17 06:06:19;;;;;;;3.90;1.42;;;10.30;99.90;;;;;;5053161;28;20033;-74
2022/09/17 06:08:45;;;;;;;5.03;1.60;;;10.30;99.90;;;;;;5036001;28;20040;-75
2022/09/17 06:11:11;;;;;;;3.63;1.15;;;10.50;99.90;;;;;;5059765;28;20056;-77
2022/09/17 06:13:38;;;;;;;4.88;0.90;;;10.60;99.90;;;;;;5057970;28;20033;-76
2022/09/17 06:16:04;;;;;;;4.78;2.50;;;10.80;99.90;;;;;;5054952;28;20549;-75
2022/09/17 06:18:31;;;;;;;2.67;0.95;;;10.80;99.90;;;;;;5053436;28;20489;-77
2022/09/17 06:21:00;;;;;;;2.45;0.77;;;10.70;99.90;;;;;;5053322;28;20072;-76
2022/09/17 06:23:27;;;;;;;5.63;1.20;;;10.60;99.90;;;;;;5053216;28;20033;-76
2022/09/17 06:25:57;;;;;;;3.65;1.23;;;10.60;99.90;;;;;;5054083;28;20051;-76
2022/09/17 06:28:25;;;;;;;3.50;1.02;;;10.60;99.90;;;;;;5053715;28;20025;-77
2022/09/17 06:30:53;;;;;;;3.70;0.90;;;10.60;99.90;;;;;;5052750;28;20446;-77
2022/09/17 06:33:20;;;;;;;1.88;0.68;;;10.50;99.90;;;;;;5052847;28;20403;-76
2022/09/17 06:35:47;;;;;;;4.07;1.08;;;10.50;99.90;;;;;;5053126;28;20386;-76
2022/09/17 06:38:14;;;;;;;4.55;1.00;;;10.50;99.90;;;;;;5053114;28;20036;-79
2022/09/17 06:40:40;;;;;;;3.65;1.23;;;10.60;99.90;;;;;;5052688;28;20462;-76
2022/09/17 06:43:06;;;;;;;3.40;0.90;;;10.70;99.90;;;;;;5053719;28;20040;-80
2022/09/17 06:45:32;;;;;;;4.47;1.08;;;10.80;99.90;;;;;;5052457;28;20116;-78
2022/09/17 06:48:03;;;;;;;4.07;1.02;;;11.00;99.90;;;;;;5053752;28;20029;-78
2022/09/17 06:50:30;;;;;;;4.38;0.98;;;11.00;99.90;;;;;;5051989;28;20041;-78
2022/09/17 06:52:56;;;;;;;2.45;0.60;;;11.10;99.90;;;;;;5053522;28;20532;-78
2022/09/17 06:55:22;;;;;;;2.80;0.90;;;11.10;99.90;;;;;;5052013;28;20061;-78
2022/09/17 06:57:48;;;;;;;4.43;0.95;;;11.00;99.90;;;;;;5053734;28;20040;-74
2022/09/17 07:00:14;;;;;;;3.33;1.13;;;11.10;99.90;;;;;;5051684;28;20049;-77
2022/09/17 07:02:41;;;;;;;3.78;0.85;;;11.10;99.90;;;;;;5053239;28;20394;-78
2022/09/17 07:05:07;;;;;;;2.65;0.90;;;11.20;99.90;;;;;;5052965;28;20033;-75
2022/09/17 07:07:34;;;;;;;3.53;0.93;;;11.60;99.90;;;;;;5052128;28;20625;-76
2022/09/17 07:10:01;;;;;;;5.78;0.88;;;12.30;99.90;;;;;;5051788;28;20466;-75
2022/09/17 07:12:27;;;;;;;5.88;0.95;;;12.10;99.90;;;;;;5051988;28;20033;-75
2022/09/17 07:14:54;;;;;;;4.60;1.00;;;11.70;99.90;;;;;;5052673;28;20037;-74
2022/09/17 07:17:20;;;;;;;10.63;1.83;;;11.80;99.90;;;;;;5034260;28;20040;-75
2022/09/17 07:19:46;;;;;;;2.10;0.80;;;12.20;99.90;;;;;;5051652;28;20033;-75
2022/09/17 07:22:13;;;;;;;4.30;1.02;;;12.30;99.90;;;;;;5052645;28;20497;-76
2022/09/17 07:24:39;;;;;;;3.47;0.90;;;12.70;99.90;;;;;;5052251;28;20041;-75
2022/09/17 07:27:05;;;;;;;6.38;1.40;;;12.70;99.90;;;;;;5052618;28;20033;-75
2022/09/17 07:29:31;;;;;;;3.92;0.93;;;13.00;99.90;;;;;;5050813;28;20024;-75
2022/09/17 07:31:58;;;;;;;1.92;0.90;;;12.90;99.90;;;;;;5052566;28;20028;-75
2022/09/17 07:34:27;;;;;;;4.05;1.35;;;13.00;99.90;;;;;;5051594;28;20033;-75
2022/09/17 07:36:53;;;;;;;3.85;1.13;;;13.00;99.90;;;;;;5052299;28;20040;-75
2022/09/17 07:39:19;;;;;;;7.47;1.25;;;13.20;99.90;;;;;;5050709;28;20048;-75
2022/09/17 07:41:46;;;;;;;4.20;1.15;;;13.00;99.90;;;;;;5052413;28;20044;-75
2022/09/17 07:44:12;;;;;;;3.72;1.30;;;13.40;99.90;;;;;;5051982;28;20040;-75
2022/09/17 07:46:38;;;;;;;5.03;1.20;;;13.50;99.90;;;;;;5033508;28;20048;-75
2022/09/17 07:49:04;;;;;;;4.38;1.10;;;13.70;99.90;;;;;;5051044;28;20454;-75
2022/09/17 07:51:30;;;;;;;2.20;0.88;;;13.50;99.90;;;;;;5051235;28;20025;-75
2022/09/17 07:53:58;;;;;;;6.40;1.10;;;13.70;99.90;;;;;;5051918;28;20049;-76
2022/09/17 07:56:25;;;;;;;3.80;1.00;;;13.70;99.90;;;;;;5051584;28;20036;-76
2022/09/17 07:58:52;;;;;;;3.58;0.88;;;13.40;99.90;;;;;;5050983;28;20470;-75
2022/09/17 08:01:20;;;;;;;7.57;1.45;;;13.00;99.90;;;;;;5051610;28;20029;-76
2022/09/17 08:03:51;;;;;;;6.78;1.17;;;13.10;99.90;;;;;;5051660;28;20037;-76
2022/09/17 08:06:21;;;;;;;7.22;1.05;;;13.10;99.90;;;;;;5051471;28;20029;-77
2022/09/17 08:08:48;;;;;;;5.72;1.13;;;13.00;99.90;;;;;;5050120;28;20494;-75
2022/09/17 08:11:17;;;;;;;5.95;1.15;;;13.00;99.90;;;;;;5051722;28;20128;-76
2022/09/17 08:13:50;;;;;;;3.00;0.70;;;12.90;99.90;;;;;;5051347;28;20044;-76
2022/09/17 08:16:17;;;;;;;4.53;1.00;;;12.90;99.90;;;;;;5050884;28;20025;-77
2022/09/17 08:18:44;;;;;;;4.80;1.10;;;13.00;99.90;;;;;;5050321;28;20637;-77
2022/09/17 08:21:13;;;;;;;3.42;0.98;;;13.10;99.90;;;;;;5051880;28;20033;-75
2022/09/17 08:23:43;;;;;;;5.03;0.95;;;13.20;99.90;;;;;;5051034;28;20040;-75
2022/09/17 08:26:17;;;;;;;3.50;0.67;;;13.40;99.90;;;;;;5051584;28;20028;-75
2022/09/17 08:28:48;;;;;;;5.30;1.33;;;13.50;99.90;;;;;;5031111;28;20041;-77
2022/09/17 08:31:16;;;;;;;5.35;1.23;;;13.60;99.70;;;;;;5053928;28;20033;-77
2022/09/17 08:33:42;;;;;;;4.65;0.85;;;13.70;99.20;;;;;;5052913;28;20025;-76
2022/09/17 08:36:11;;;;;;;4.15;1.20;;;13.50;99.90;;;;;;5033935;28;20056;-76
2022/09/17 08:38:37;;;;;;;9.85;1.83;;;13.50;98.60;;;;;;5050227;28;20611;-75
2022/09/17 08:41:10;;;;;;;5.70;1.65;;;13.70;98.90;;;;;;5051103;28;20025;-77
2022/09/17 08:43:45;;;;;;;4.07;0.90;;;14.50;97.40;;;;;;5050580;28;20122;-76
2022/09/17 08:46:11;;;;;;;4.85;0.80;;;14.50;97.10;;;;;;5051817;28;20036;-77
2022/09/17 08:49:02;;;;;;;8.68;1.58;;;14.10;96.80;;;;;;5050070;28;20656;-76
2022/09/17 08:51:28;;;;;;;6.00;0.98;;;13.80;98.30;;;;;;5006340;28;20044;-76
2022/09/17 08:54:03;;;;;;;11.15;1.48;;;13.40;98.80;;;;;;5050712;28;20041;-75
2022/09/17 08:56:33;;;;;;;3.22;1.10;;;13.20;99.80;;;;;;5051263;28;20029;-76
2022/09/17 08:59:02;;;;;;;3.33;1.23;;;13.30;99.90;;;;;;5050878;28;20049;-76
2022/09/17 09:01:49;;;;;;;5.05;1.00;;;14.10;98.50;;;;;;5050765;28;20029;-74
2022/09/17 09:04:26;;;;;;;6.55;0.93;;;14.40;96.40;;;;;;5051784;28;20136;-77
2022/09/17 09:07:03;;;;;;;3.20;0.70;;;14.50;96.80;;;;;;5033476;28;20040;-76
2022/09/17 09:09:37;;;;;;;5.03;0.82;;;14.50;95.80;;;;;;5049645;28;20381;-75
2022/09/17 09:12:09;;;;;;;5.35;0.90;;;14.30;94.20;;;;;;5051114;28;20032;-75
2022/09/17 09:14:46;;;;;;;5.78;0.60;;;14.20;94.70;;;;;;5050063;28;20044;-75
2022/09/17 09:17:12;;;;;;;5.53;1.02;;;14.20;96.30;;;;;;5051470;28;20509;-74
2022/09/17 09:19:43;;;;;;;3.90;0.85;;;14.00;95.90;;;;;;5051071;28;20615;-74
2022/09/17 09:22:24;;;;;;;4.97;1.27;;;13.70;96.10;;;;;;5055261;28;20037;-73
2022/09/17 09:25:04;;;;;;;6.40;0.77;;;13.60;97.60;;;;;;5055021;28;20037;-75
2022/09/17 09:27:45;;;;;;;6.75;1.13;;;13.60;96.90;;;;;;5054683;28;20374;-75
2022/09/17 09:30:14;;;;;;;4.72;0.70;;;14.00;96.90;;;;;;5054033;28;20059;-75
2022/09/17 09:32:49;;;;;;;2.85;0.90;;;14.80;95.60;;;;;;5036310;28;20050;-74
2022/09/17 09:35:21;;;;;;;4.43;0.85;;;15.30;92.40;;;;;;5054633;28;20052;-75
2022/09/17 09:38:27;;;;;;;4.97;0.90;;;15.80;90.00;;;;;;5054836;28;20040;-75
2022/09/17 09:41:06;;;;;;;1.38;0.50;;;16.20;82.80;;;;;;5054327;28;20029;-75
2022/09/17 09:43:46;;;;;;;1.55;0.50;;;16.30;79.30;;;;;;5053452;28;20040;-75
2022/09/17 09:46:43;;;;;;;4.20;1.00;;;16.30;77.80;;;;;;5054828;28;20029;-75
2022/09/17 09:49:26;;;;;;;4.45;1.85;;;15.70;77.60;;;;;;5053486;28;20040;-75
2022/09/17 09:52:28;;;;;;;3.60;1.45;;;15.30;79.20;;;;;;5036650;28;20045;-75
2022/09/17 09:55:13;;;;;;;3.50;0.68;;;14.80;79.60;;;;;;4982806;28;20062;-77
2022/09/17 09:57:46;;;;;;;3.15;0.68;;;14.70;82.60;;;;;;5053785;28;20615;-78
2022/09/17 10:00:27;;;;;;;1.95;1.10;;;14.80;80.00;;;;;;5053024;28;20413;-79
2022/09/17 10:03:10;;;;;;;2.78;0.68;;;14.90;78.40;;;;;;5053998;28;20044;-77
2022/09/17 10:05:37;;;;;;;20.75;2.42;;;15.10;77.30;;;;;;5053888;28;20029;-77
2022/09/17 10:08:11;;;;;;;12.25;1.58;;;15.30;78.80;;;;;;5054385;28;20029;-77
2022/09/17 10:10:54;;;;;;;3.83;0.40;;;15.10;78.20;;;;;;5052817;28;20033;-80
2022/09/17 10:13:21;;;;;;;6.75;1.00;;;14.80;79.00;;;;;;5034827;28;20049;-81
2022/09/17 10:15:47;;;;;;;5.53;0.70;;;14.70;84.00;;;;;;5054008;28;20021;-79
2022/09/17 10:18:20;;;;;;;5.22;0.70;;;14.50;89.70;;;;;;5053722;28;20044;-79
2022/09/17 10:20:53;;;;;;;5.40;0.70;;;14.40;90.80;;;;;;5053980;28;20025;-80
2022/09/17 10:23:21;;;;;;;3.50;1.00;;;14.50;90.70;;;;;;5036346;28;20314;-81
2022/09/17 10:25:49;;;;;;;5.50;0.82;;;14.90;91.70;;;;;;5035925;28;20041;-80
2022/09/17 10:28:29;;;;;;;2.22;0.55;;;15.40;88.10;;;;;;5026056;28;20048;-79
2022/09/17 10:31:14;;;;;;;2.55;0.50;;;15.50;82.60;;;;;;5035792;28;20486;-80
2022/09/17 10:33:50;;;;;;;5.90;0.85;;;15.70;82.70;;;;;;5054939;28;20045;-80
2022/09/17 10:36:37;;;;;;;4.68;1.38;;;16.10;80.20;;;;;;5052575;28;20507;-77
2022/09/17 10:39:28;;;;;;;4.82;1.13;;;16.70;77.40;;;;;;5043226;28;20040;-79
2022/09/17 10:42:14;;;;;;;3.78;0.93;;;16.60;73.80;;;;;;5042973;28;20033;-78
2022/09/17 10:44:59;;;;;;;3.50;1.20;;;16.70;75.10;;;;;;5034851;28;20056;-80
2022/09/17 10:47:29;;;;;;;4.85;0.50;;;16.80;74.40;;;;;;5035431;28;20474;-85
2022/09/17 10:50:00;;;;;;;4.87;0.87;;;16.30;74.00;;;;;;5053144;28;20498;-80
2022/09/17 10:52:37;;;;;;;;;;;15.80;74.30;;;;;;5036203;28;20052;-80
2022/09/17 10:55:25;;;;;;;5.45;0.80;;;15.50;74.40;;;;;;5019192;28;19912;-82
2022/09/17 10:57:57;;;;;;;2.17;0.50;;;15.60;73.20;;;;;;5035956;28;20037;-84
2022/09/17 11:00:23;;;;;;;5.95;1.23;;;15.70;75.20;;;;;;5017525;28;20037;-83
2022/09/17 11:03:11;;;;;;;2.47;0.43;;;15.80;74.80;;;;;;5034579;28;20252;-80
2022/09/17 11:05:48;;;;;;;5.78;0.80;;;15.60;72.40;;;;;;5035193;28;20470;-82
2022/09/17 11:08:24;;;;;;;5.57;0.73;;;15.40;72.50;;;;;;5034664;28;20060;-82
2022/09/17 11:10:54;;;;;;;8.05;0.88;;;15.30;73.40;;;;;;5035756;28;20037;-80
2022/09/17 11:13:42;;;;;;;3.25;0.30;;;15.20;73.70;;;;;;5035175;28;20041;-84
2022/09/17 11:16:21;;;;;;;8.02;0.98;;;15.20;75.40;;;;;;5053911;28;20363;-79
2022/09/17 11:19:16;;;;;;;6.75;0.57;;;15.30;76.60;;;;;;5017406;28;20049;-81
2022/09/17 11:21:49;;;;;;;3.15;0.57;;;15.50;76.90;;;;;;5005282;28;20386;-82
2022/09/17 11:24:32;;;;;;;5.25;0.68;;;15.40;75.80;;;;;;5053226;28;20028;-81
2022/09/17 11:27:34;;;;;;;3.72;0.50;;;15.30;76.00;;;;;;5035762;28;20482;-81
2022/09/17 11:30:07;;;;;;;3.40;0.60;;;15.30;75.40;;;;;;4964966;28;20058;-80
2022/09/17 11:32:42;;;;;;;2.30;1.00;;;15.50;74.70;;;;;;5037672;28;20053;-80
2022/09/17 11:35:38;;;;;;;4.93;0.90;;;15.40;75.00;;;;;;5034829;28;20055;-81
2022/09/17 11:38:19;;;;;;;1.40;0.55;;;15.70;74.60;;;;;;5032245;28;20072;-80
2022/09/17 11:40:57;;;;;;;1.58;0.40;;;15.90;74.80;;;;;;5033638;28;20497;-79
2022/09/17 11:43:35;;;;;;;3.33;0.50;;;16.00;72.70;;;;;;5051714;28;20033;-80
2022/09/17 11:46:08;;;;;;;4.07;0.93;;;15.90;71.80;;;;;;5053143;28;20025;-80
2022/09/17 11:48:37;;;;;;;5.88;0.40;;;15.70;74.10;;;;;;5051164;28;20039;-79
2022/09/17 11:51:27;;;;;;;3.63;0.70;;;15.70;74.00;;;;;;5052976;28;20036;-80
2022/09/17 11:54:30;;;;;;;2.63;0.60;;;15.70;75.30;;;;;;5051767;28;20070;-82
2022/09/17 11:57:21;;;;;;;3.35;0.57;;;15.90;74.30;;;;;;5012027;28;20044;-81
2022/09/17 11:59:53;;;;;;;2.85;0.70;;;15.60;75.30;;;;;;5050845;28;20390;-80
2022/09/17 12:02:25;;;;;;;1.80;0.40;;;15.60;75.30;;;;;;5051552;28;20021;-87
2022/09/17 12:05:11;;;;;;;5.03;0.77;;;15.60;75.80;;;;;;5034895;28;20063;-82
2022/09/17 12:07:56;;;;;;;4.75;0.88;;;15.50;76.50;;;;;;5029534;28;20037;-83
2022/09/17 12:10:35;;;;;;;4.38;0.60;;;15.30;76.50;;;;;;5032933;28;20063;-89
2022/09/17 12:13:25;;;;;;;3.33;1.00;;;15.40;76.70;;;;;;5032998;28;20136;-81
2022/09/17 12:16:03;;;;;;;1.75;0.52;;;15.50;76.30;;;;;;5032428;28;20041;-89
2022/09/17 12:18:38;;;;;;;2.08;0.30;;;15.50;77.70;;;;;;5034062;28;20068;-85
2022/09/17 12:21:09;;;;;;;3.50;0.57;;;15.60;75.40;;;;;;5016960;28;20490;-85
2022/09/17 12:23:44;;;;;;;3.58;0.63;;;15.70;73.90;;;;;;5033688;28;20501;-84
2022/09/17 12:26:31;;;;;;;2.58;1.15;;;16.20;74.70;;;;;;5032217;28;20512;-81
2022/09/17 12:29:18;;;;;;;3.30;0.70;;;16.60;70.80;;;;;;5033858;28;20057;-84
2022/09/17 12:31:57;;;;;;;2.92;0.77;;;16.60;71.00;;;;;;5052057;28;20537;-82
2022/09/17 12:34:50;;;;;;;3.38;0.45;;;16.40;69.00;;;;;;5032879;28;20124;-84
2022/09/17 12:37:42;;;;;;;3.85;0.52;;;16.30;69.60;;;;;;5032942;28;20041;-82
2022/09/17 12:40:26;;;;;;;2.83;0.50;;;16.50;67.90;;;;;;5034656;28;20033;-79
2022/09/17 12:43:15;;;;;;;4.22;0.75;;;16.60;67.90;;;;;;5036526;28;20033;-86
2022/09/17 12:46:07;;;;;;;5.28;0.85;;;16.70;68.70;;;;;;5030876;28;20029;-82
2022/09/17 12:49:00;;;;;;;1.73;0.43;;;16.80;68.70;;;;;;5033947;28;20056;-85
2022/09/17 12:51:55;;;;;;;2.85;0.55;;;16.80;69.00;;;;;;5035143;28;20041;-86
2022/09/17 12:54:49;;;;;;;1.40;0.50;;;17.00;68.60;;;;;;5020121;28;20063;-85
2022/09/17 12:58:04;;;;;;;3.42;0.60;;;16.70;68.30;;;;;;5044554;28;20045;-84
2022/09/17 13:00:42;;;;;;;3.67;0.45;;;16.70;70.60;;;;;;5029715;28;20045;-81
2022/09/17 13:03:22;;;;;;;1.95;0.50;;;16.70;68.00;;;;;;5033729;28;20037;-85
2022/09/17 13:06:18;;;;;;;2.42;0.90;;;16.50;68.80;;;;;;5029336;28;20388;-80
2022/09/17 13:09:04;;;;;;;1.95;0.55;;;16.40;70.10;;;;;;5031920;28;20034;-81
2022/09/17 13:11:55;;;;;;;7.28;0.65;;;16.40;68.60;;;;;;5013912;28;20037;-83
2022/09/17 13:14:30;;;;;;;2.17;0.47;;;16.40;69.70;;;;;;5029825;28;20047;-82
2022/09/17 13:17:36;;;;;;;5.22;0.80;;;16.40;68.90;;;;;;5025111;28;20041;-80
2022/09/17 13:20:24;;;;;;;3.17;0.40;;;16.60;70.70;;;;;;5031966;28;20037;-82
2022/09/17 13:22:54;;;;;;;0.95;0.30;;;16.90;68.40;;;;;;5031093;28;20052;-84